sensor_id;sensor_type;location;lat;lon;timestamp;P1;durP1;ratioP1;P2;durP2;ratioP2
11098;SDS011;12223;42.650;23.364;2024-03-22T00:01:50;11.35;;;5.13;;
11098;SDS011;12223;42.650;23.364;2024-03-22T00:04:16;9.13;;;4.72;;
11098;SDS011;12223;42.650;23.364;2024-03-22T00:06:42;7.50;;;3.67;;
11098;SDS011;12223;42.650;23.364;2024-03-22T00:09:08;15.63;;;7.05;;
11098;SDS011;12223;42.650;23.364;2024-03-22T00:11:34;15.43;;;7.60;;
11098;SDS011;12223;42.650;23.364;2024-03-22T00:14:01;13.07;;;6.95;;
11098;SDS011;12223;42.650;23.364;2024-03-22T00:16:27;15.75;;;7.00;;
11098;SDS011;12223;42.650;23.364;2024-03-22T00:18:52;14.60;;;5.22;;
11098;SDS011;12223;42.650;23.364;2024-03-22T00:21:18;12.80;;;6.03;;
11098;SDS011;12223;42.650;23.364;2024-03-22T00:23:44;12.95;;;4.22;;
11098;SDS011;12223;42.650;23.364;2024-03-22T00:26:10;10.55;;;4.82;;
11098;SDS011;12223;42.650;23.364;2024-03-22T00:28:36;17.90;;;7.13;;
11098;SDS011;12223;42.650;23.364;2024-03-22T00:31:01;21.92;;;7.80;;
11098;SDS011;12223;42.650;23.364;2024-03-22T00:33:27;19.20;;;8.93;;
11098;SDS011;12223;42.650;23.364;2024-03-22T00:35:52;20.10;;;8.40;;
11098;SDS011;12223;42.650;23.364;2024-03-22T00:38:17;13.68;;;6.82;;
11098;SDS011;12223;42.650;23.364;2024-03-22T00:40:43;14.18;;;6.30;;
11098;SDS011;12223;42.650;23.364;2024-03-22T00:43:08;10.25;;;5.20;;
11098;SDS011;12223;42.650;23.364;2024-03-22T00:45:34;9.90;;;4.93;;
11098;SDS011;12223;42.650;23.364;2024-03-22T00:47:59;9.45;;;4.82;;
11098;SDS011;12223;42.650;23.364;2024-03-22T00:50:24;6.95;;;3.50;;
11098;SDS011;12223;42.650;23.364;2024-03-22T00:52:50;7.00;;;3.58;;
11098;SDS011;12223;42.650;23.364;2024-03-22T00:55:16;12.55;;;3.85;;
11098;SDS011;12223;42.650;23.364;2024-03-22T00:57:41;8.60;;;3.67;;
11098;SDS011;12223;42.650;23.364;2024-03-22T01:00:07;8.38;;;4.28;;
11098;SDS011;12223;42.650;23.364;2024-03-22T01:02:33;7.47;;;3.20;;
11098;SDS011;12223;42.650;23.364;2024-03-22T01:04:58;9.85;;;4.90;;
11098;SDS011;12223;42.650;23.364;2024-03-22T01:07:23;10.50;;;3.50;;
11098;SDS011;12223;42.650;23.364;2024-03-22T01:09:49;7.55;;;4.28;;
11098;SDS011;12223;42.650;23.364;2024-03-22T01:12:14;11.07;;;3.72;;
11098;SDS011;12223;42.650;23.364;2024-03-22T01:14:40;11.73;;;3.65;;
11098;SDS011;12223;42.650;23.364;2024-03-22T01:17:05;9.18;;;4.63;;
11098;SDS011;12223;42.650;23.364;2024-03-22T01:19:30;12.50;;;4.65;;
11098;SDS011;12223;42.650;23.364;2024-03-22T01:21:56;11.07;;;4.50;;
11098;SDS011;12223;42.650;23.364;2024-03-22T01:24:21;9.98;;;4.43;;
11098;SDS011;12223;42.650;23.364;2024-03-22T01:26:46;10.35;;;4.90;;
11098;SDS011;12223;42.650;23.364;2024-03-22T01:29:13;10.85;;;3.92;;
11098;SDS011;12223;42.650;23.364;2024-03-22T01:31:39;13.27;;;4.57;;
11098;SDS011;12223;42.650;23.364;2024-03-22T01:34:04;9.15;;;4.22;;
11098;SDS011;12223;42.650;23.364;2024-03-22T01:36:30;11.32;;;4.85;;
11098;SDS011;12223;42.650;23.364;2024-03-22T01:38:56;9.75;;;4.88;;
11098;SDS011;12223;42.650;23.364;2024-03-22T01:41:22;8.85;;;4.88;;
11098;SDS011;12223;42.650;23.364;2024-03-22T01:43:47;8.65;;;4.38;;
11098;SDS011;12223;42.650;23.364;2024-03-22T01:46:12;6.43;;;3.47;;
11098;SDS011;12223;42.650;23.364;2024-03-22T01:48:38;7.22;;;3.78;;
11098;SDS011;12223;42.650;23.364;2024-03-22T01:51:04;7.90;;;3.97;;
11098;SDS011;12223;42.650;23.364;2024-03-22T01:53:30;6.78;;;3.47;;
11098;SDS011;12223;42.650;23.364;2024-03-22T01:55:56;10.55;;;4.50;;
11098;SDS011;12223;42.650;23.364;2024-03-22T01:58:22;8.75;;;3.75;;
11098;SDS011;12223;42.650;23.364;2024-03-22T02:00:47;9.60;;;3.83;;
11098;SDS011;12223;42.650;23.364;2024-03-22T02:03:14;9.20;;;4.30;;
11098;SDS011;12223;42.650;23.364;2024-03-22T02:05:39;8.88;;;4.53;;
11098;SDS011;12223;42.650;23.364;2024-03-22T02:08:04;10.50;;;4.30;;
11098;SDS011;12223;42.650;23.364;2024-03-22T02:10:30;9.20;;;4.90;;
11098;SDS011;12223;42.650;23.364;2024-03-22T02:12:56;9.30;;;4.70;;
11098;SDS011;12223;42.650;23.364;2024-03-22T02:15:21;8.48;;;4.00;;
11098;SDS011;12223;42.650;23.364;2024-03-22T02:17:47;7.63;;;4.28;;
11098;SDS011;12223;42.650;23.364;2024-03-22T02:20:12;8.10;;;3.85;;
11098;SDS011;12223;42.650;23.364;2024-03-22T02:22:38;6.68;;;3.67;;
11098;SDS011;12223;42.650;23.364;2024-03-22T02:25:03;10.35;;;3.47;;
11098;SDS011;12223;42.650;23.364;2024-03-22T02:27:29;6.72;;;4.05;;
11098;SDS011;12223;42.650;23.364;2024-03-22T02:29:54;8.95;;;4.32;;
11098;SDS011;12223;42.650;23.364;2024-03-22T02:32:20;8.20;;;4.65;;
11098;SDS011;12223;42.650;23.364;2024-03-22T02:34:45;10.10;;;3.83;;
11098;SDS011;12223;42.650;23.364;2024-03-22T02:37:11;10.23;;;4.45;;
11098;SDS011;12223;42.650;23.364;2024-03-22T02:39:36;10.05;;;4.78;;
11098;SDS011;12223;42.650;23.364;2024-03-22T02:42:01;12.30;;;4.18;;
11098;SDS011;12223;42.650;23.364;2024-03-22T02:44:27;9.00;;;4.50;;
11098;SDS011;12223;42.650;23.364;2024-03-22T02:46:53;9.68;;;4.70;;
11098;SDS011;12223;42.650;23.364;2024-03-22T02:49:18;8.68;;;4.63;;
11098;SDS011;12223;42.650;23.364;2024-03-22T02:51:44;11.68;;;4.72;;
11098;SDS011;12223;42.650;23.364;2024-03-22T02:54:09;9.70;;;4.10;;
11098;SDS011;12223;42.650;23.364;2024-03-22T02:56:35;11.20;;;5.07;;
11098;SDS011;12223;42.650;23.364;2024-03-22T02:59:00;13.63;;;4.38;;
11098;SDS011;12223;42.650;23.364;2024-03-22T03:01:25;13.00;;;5.63;;
11098;SDS011;12223;42.650;23.364;2024-03-22T03:03:51;8.70;;;4.95;;
11098;SDS011;12223;42.650;23.364;2024-03-22T03:06:16;11.43;;;4.50;;
11098;SDS011;12223;42.650;23.364;2024-03-22T03:08:44;8.55;;;4.20;;
11098;SDS011;12223;42.650;23.364;2024-03-22T03:11:10;8.88;;;4.40;;
11098;SDS011;12223;42.650;23.364;2024-03-22T03:13:35;11.20;;;5.95;;
11098;SDS011;12223;42.650;23.364;2024-03-22T03:16:01;11.85;;;4.10;;
11098;SDS011;12223;42.650;23.364;2024-03-22T03:18:27;13.10;;;4.38;;
11098;SDS011;12223;42.650;23.364;2024-03-22T03:20:52;14.07;;;4.95;;
11098;SDS011;12223;42.650;23.364;2024-03-22T03:23:18;10.20;;;4.35;;
11098;SDS011;12223;42.650;23.364;2024-03-22T03:25:43;13.90;;;5.00;;
11098;SDS011;12223;42.650;23.364;2024-03-22T03:28:14;14.55;;;4.25;;
11098;SDS011;12223;42.650;23.364;2024-03-22T03:30:39;19.48;;;6.25;;
11098;SDS011;12223;42.650;23.364;2024-03-22T03:33:05;10.32;;;6.10;;
11098;SDS011;12223;42.650;23.364;2024-03-22T03:35:30;11.85;;;4.82;;
11098;SDS011;12223;42.650;23.364;2024-03-22T03:37:56;14.27;;;4.93;;
11098;SDS011;12223;42.650;23.364;2024-03-22T03:40:21;14.10;;;6.95;;
11098;SDS011;12223;42.650;23.364;2024-03-22T03:42:49;9.85;;;4.68;;
11098;SDS011;12223;42.650;23.364;2024-03-22T03:45:15;9.27;;;5.53;;
11098;SDS011;12223;42.650;23.364;2024-03-22T03:47:40;11.00;;;3.83;;
11098;SDS011;12223;42.650;23.364;2024-03-22T03:50:05;7.78;;;3.45;;
11098;SDS011;12223;42.650;23.364;2024-03-22T03:52:31;11.27;;;4.78;;
11098;SDS011;12223;42.650;23.364;2024-03-22T03:54:56;11.27;;;4.55;;
11098;SDS011;12223;42.650;23.364;2024-03-22T03:57:21;5.82;;;4.15;;
11098;SDS011;12223;42.650;23.364;2024-03-22T03:59:47;6.15;;;3.08;;
11098;SDS011;12223;42.650;23.364;2024-03-22T04:02:12;5.20;;;3.35;;
11098;SDS011;12223;42.650;23.364;2024-03-22T04:04:37;8.93;;;3.65;;
11098;SDS011;12223;42.650;23.364;2024-03-22T04:07:03;8.35;;;3.53;;
11098;SDS011;12223;42.650;23.364;2024-03-22T04:09:29;9.50;;;3.83;;
11098;SDS011;12223;42.650;23.364;2024-03-22T04:11:54;14.15;;;6.68;;
11098;SDS011;12223;42.650;23.364;2024-03-22T04:14:23;19.80;;;12.10;;
11098;SDS011;12223;42.650;23.364;2024-03-22T04:16:50;8.30;;;3.60;;
11098;SDS011;12223;42.650;23.364;2024-03-22T04:19:15;8.10;;;4.60;;
11098;SDS011;12223;42.650;23.364;2024-03-22T04:21:40;6.03;;;3.65;;
11098;SDS011;12223;42.650;23.364;2024-03-22T04:24:06;7.78;;;3.88;;
11098;SDS011;12223;42.650;23.364;2024-03-22T04:26:31;10.00;;;3.95;;
11098;SDS011;12223;42.650;23.364;2024-03-22T04:28:56;8.00;;;3.80;;
11098;SDS011;12223;42.650;23.364;2024-03-22T04:31:22;10.23;;;3.38;;
11098;SDS011;12223;42.650;23.364;2024-03-22T04:33:47;10.40;;;4.72;;
11098;SDS011;12223;42.650;23.364;2024-03-22T04:36:13;15.45;;;5.15;;
11098;SDS011;12223;42.650;23.364;2024-03-22T04:38:38;25.45;;;5.95;;
11098;SDS011;12223;42.650;23.364;2024-03-22T04:41:03;15.15;;;5.07;;
11098;SDS011;12223;42.650;23.364;2024-03-22T04:43:29;13.75;;;5.85;;
11098;SDS011;12223;42.650;23.364;2024-03-22T04:45:54;12.15;;;4.88;;
11098;SDS011;12223;42.650;23.364;2024-03-22T04:48:20;10.50;;;4.60;;
11098;SDS011;12223;42.650;23.364;2024-03-22T04:50:53;16.13;;;6.32;;
11098;SDS011;12223;42.650;23.364;2024-03-22T04:53:18;9.48;;;4.22;;
11098;SDS011;12223;42.650;23.364;2024-03-22T04:55:48;9.77;;;4.18;;
11098;SDS011;12223;42.650;23.364;2024-03-22T04:58:15;12.75;;;4.88;;
11098;SDS011;12223;42.650;23.364;2024-03-22T05:00:44;10.18;;;5.20;;
11098;SDS011;12223;42.650;23.364;2024-03-22T05:03:11;11.60;;;4.35;;
11098;SDS011;12223;42.650;23.364;2024-03-22T05:05:37;10.10;;;4.30;;
11098;SDS011;12223;42.650;23.364;2024-03-22T05:08:03;13.18;;;4.57;;
11098;SDS011;12223;42.650;23.364;2024-03-22T05:10:29;13.32;;;4.10;;
11098;SDS011;12223;42.650;23.364;2024-03-22T05:12:55;8.98;;;4.30;;
11098;SDS011;12223;42.650;23.364;2024-03-22T05:15:21;9.27;;;4.35;;
11098;SDS011;12223;42.650;23.364;2024-03-22T05:17:48;9.48;;;4.72;;
11098;SDS011;12223;42.650;23.364;2024-03-22T05:20:14;11.98;;;4.57;;
11098;SDS011;12223;42.650;23.364;2024-03-22T05:22:40;12.95;;;7.95;;
11098;SDS011;12223;42.650;23.364;2024-03-22T05:25:05;11.48;;;5.35;;
11098;SDS011;12223;42.650;23.364;2024-03-22T05:27:31;20.42;;;5.55;;
11098;SDS011;12223;42.650;23.364;2024-03-22T05:29:57;8.98;;;4.57;;
11098;SDS011;12223;42.650;23.364;2024-03-22T05:32:24;10.20;;;4.85;;
11098;SDS011;12223;42.650;23.364;2024-03-22T05:34:49;9.95;;;5.35;;
11098;SDS011;12223;42.650;23.364;2024-03-22T05:37:21;13.40;;;5.57;;
11098;SDS011;12223;42.650;23.364;2024-03-22T05:39:47;19.55;;;7.13;;
11098;SDS011;12223;42.650;23.364;2024-03-22T05:42:13;27.08;;;6.90;;
11098;SDS011;12223;42.650;23.364;2024-03-22T05:44:39;18.00;;;7.68;;
11098;SDS011;12223;42.650;23.364;2024-03-22T05:47:04;22.35;;;8.23;;
11098;SDS011;12223;42.650;23.364;2024-03-22T05:49:30;17.83;;;6.65;;
11098;SDS011;12223;42.650;23.364;2024-03-22T05:51:55;27.55;;;8.45;;
11098;SDS011;12223;42.650;23.364;2024-03-22T05:54:21;16.77;;;7.00;;
11098;SDS011;12223;42.650;23.364;2024-03-22T05:56:46;18.45;;;7.60;;
11098;SDS011;12223;42.650;23.364;2024-03-22T05:59:11;14.68;;;6.35;;
11098;SDS011;12223;42.650;23.364;2024-03-22T06:01:37;13.88;;;7.72;;
11098;SDS011;12223;42.650;23.364;2024-03-22T06:04:05;15.23;;;6.90;;
11098;SDS011;12223;42.650;23.364;2024-03-22T06:06:34;12.95;;;6.60;;
11098;SDS011;12223;42.650;23.364;2024-03-22T06:09:00;12.38;;;5.85;;
11098;SDS011;12223;42.650;23.364;2024-03-22T06:11:29;12.25;;;5.80;;
11098;SDS011;12223;42.650;23.364;2024-03-22T06:13:57;25.38;;;8.25;;
11098;SDS011;12223;42.650;23.364;2024-03-22T06:16:22;20.08;;;7.30;;
11098;SDS011;12223;42.650;23.364;2024-03-22T06:18:47;8.48;;;5.55;;
11098;SDS011;12223;42.650;23.364;2024-03-22T06:21:13;13.77;;;5.80;;
11098;SDS011;12223;42.650;23.364;2024-03-22T06:23:39;12.45;;;5.90;;
11098;SDS011;12223;42.650;23.364;2024-03-22T06:26:06;14.05;;;6.82;;
11098;SDS011;12223;42.650;23.364;2024-03-22T06:28:31;19.90;;;6.70;;
11098;SDS011;12223;42.650;23.364;2024-03-22T06:30:57;12.52;;;6.47;;
11098;SDS011;12223;42.650;23.364;2024-03-22T06:33:22;19.50;;;6.72;;
11098;SDS011;12223;42.650;23.364;2024-03-22T06:35:48;18.88;;;8.13;;
11098;SDS011;12223;42.650;23.364;2024-03-22T06:38:13;13.65;;;5.93;;
11098;SDS011;12223;42.650;23.364;2024-03-22T06:40:39;17.42;;;6.63;;
11098;SDS011;12223;42.650;23.364;2024-03-22T06:43:04;11.50;;;6.43;;
11098;SDS011;12223;42.650;23.364;2024-03-22T06:45:29;11.05;;;5.32;;
11098;SDS011;12223;42.650;23.364;2024-03-22T06:47:55;23.77;;;8.30;;
11098;SDS011;12223;42.650;23.364;2024-03-22T06:50:20;13.70;;;5.68;;
11098;SDS011;12223;42.650;23.364;2024-03-22T06:52:52;12.00;;;5.72;;
11098;SDS011;12223;42.650;23.364;2024-03-22T06:55:18;15.55;;;6.15;;
11098;SDS011;12223;42.650;23.364;2024-03-22T06:57:45;19.15;;;5.93;;
11098;SDS011;12223;42.650;23.364;2024-03-22T07:00:12;10.15;;;5.22;;
11098;SDS011;12223;42.650;23.364;2024-03-22T07:02:38;13.20;;;4.80;;
11098;SDS011;12223;42.650;23.364;2024-03-22T07:05:04;12.13;;;5.88;;
11098;SDS011;12223;42.650;23.364;2024-03-22T07:07:30;9.93;;;4.65;;
11098;SDS011;12223;42.650;23.364;2024-03-22T07:09:56;7.90;;;4.47;;
11098;SDS011;12223;42.650;23.364;2024-03-22T07:12:21;11.23;;;5.00;;
11098;SDS011;12223;42.650;23.364;2024-03-22T07:14:47;8.52;;;4.35;;
11098;SDS011;12223;42.650;23.364;2024-03-22T07:17:12;9.30;;;4.07;;
11098;SDS011;12223;42.650;23.364;2024-03-22T07:19:38;15.15;;;5.60;;
11098;SDS011;12223;42.650;23.364;2024-03-22T07:22:03;14.95;;;4.70;;
11098;SDS011;12223;42.650;23.364;2024-03-22T07:24:29;10.65;;;4.15;;
11098;SDS011;12223;42.650;23.364;2024-03-22T07:26:54;13.25;;;5.80;;
11098;SDS011;12223;42.650;23.364;2024-03-22T07:29:20;15.00;;;6.55;;
11098;SDS011;12223;42.650;23.364;2024-03-22T07:31:46;16.02;;;5.80;;
11098;SDS011;12223;42.650;23.364;2024-03-22T07:34:11;10.15;;;4.15;;
11098;SDS011;12223;42.650;23.364;2024-03-22T07:36:37;19.27;;;6.72;;
11098;SDS011;12223;42.650;23.364;2024-03-22T07:39:03;4.82;;;2.10;;
11098;SDS011;12223;42.650;23.364;2024-03-22T07:41:31;8.15;;;3.55;;
11098;SDS011;12223;42.650;23.364;2024-03-22T07:43:57;16.45;;;4.50;;
11098;SDS011;12223;42.650;23.364;2024-03-22T07:46:24;9.45;;;3.58;;
11098;SDS011;12223;42.650;23.364;2024-03-22T07:48:49;3.53;;;1.52;;
11098;SDS011;12223;42.650;23.364;2024-03-22T07:51:15;9.57;;;2.40;;
11098;SDS011;12223;42.650;23.364;2024-03-22T07:53:40;6.53;;;3.25;;
11098;SDS011;12223;42.650;23.364;2024-03-22T07:56:05;15.18;;;3.10;;
11098;SDS011;12223;42.650;23.364;2024-03-22T07:58:31;9.85;;;3.17;;
11098;SDS011;12223;42.650;23.364;2024-03-22T08:00:56;4.80;;;1.95;;
11098;SDS011;12223;42.650;23.364;2024-03-22T08:03:22;6.05;;;3.33;;
11098;SDS011;12223;42.650;23.364;2024-03-22T08:05:48;9.57;;;3.72;;
11098;SDS011;12223;42.650;23.364;2024-03-22T08:08:14;5.82;;;2.47;;
11098;SDS011;12223;42.650;23.364;2024-03-22T08:10:39;6.32;;;2.67;;
11098;SDS011;12223;42.650;23.364;2024-03-22T08:13:04;8.05;;;3.47;;
11098;SDS011;12223;42.650;23.364;2024-03-22T08:15:30;5.57;;;3.25;;
11098;SDS011;12223;42.650;23.364;2024-03-22T08:17:55;9.13;;;3.05;;
11098;SDS011;12223;42.650;23.364;2024-03-22T08:20:23;9.70;;;4.03;;
11098;SDS011;12223;42.650;23.364;2024-03-22T08:22:48;7.47;;;3.42;;
11098;SDS011;12223;42.650;23.364;2024-03-22T08:25:14;10.38;;;3.72;;
11098;SDS011;12223;42.650;23.364;2024-03-22T08:27:42;8.63;;;3.42;;
11098;SDS011;12223;42.650;23.364;2024-03-22T08:30:08;7.15;;;2.83;;
11098;SDS011;12223;42.650;23.364;2024-03-22T08:32:34;6.45;;;3.40;;
11098;SDS011;12223;42.650;23.364;2024-03-22T08:35:00;7.18;;;3.33;;
11098;SDS011;12223;42.650;23.364;2024-03-22T08:37:25;6.40;;;3.15;;
11098;SDS011;12223;42.650;23.364;2024-03-22T08:39:51;6.18;;;3.20;;
11098;SDS011;12223;42.650;23.364;2024-03-22T08:42:16;7.15;;;2.90;;
11098;SDS011;12223;42.650;23.364;2024-03-22T08:44:42;6.70;;;3.72;;
11098;SDS011;12223;42.650;23.364;2024-03-22T08:47:07;4.95;;;2.83;;
11098;SDS011;12223;42.650;23.364;2024-03-22T08:49:34;1.70;;;1.08;;
11098;SDS011;12223;42.650;23.364;2024-03-22T08:52:01;4.63;;;2.35;;
11098;SDS011;12223;42.650;23.364;2024-03-22T08:54:27;6.15;;;3.20;;
11098;SDS011;12223;42.650;23.364;2024-03-22T08:56:52;8.68;;;2.45;;
11098;SDS011;12223;42.650;23.364;2024-03-22T08:59:18;7.70;;;2.38;;
11098;SDS011;12223;42.650;23.364;2024-03-22T09:01:43;7.30;;;3.00;;
11098;SDS011;12223;42.650;23.364;2024-03-22T09:04:08;6.22;;;3.03;;
11098;SDS011;12223;42.650;23.364;2024-03-22T09:06:34;5.90;;;2.50;;
11098;SDS011;12223;42.650;23.364;2024-03-22T09:08:59;10.52;;;2.95;;
11098;SDS011;12223;42.650;23.364;2024-03-22T09:11:24;5.47;;;3.08;;
11098;SDS011;12223;42.650;23.364;2024-03-22T09:13:53;5.90;;;2.97;;
11098;SDS011;12223;42.650;23.364;2024-03-22T09:16:20;3.58;;;1.73;;
11098;SDS011;12223;42.650;23.364;2024-03-22T09:18:45;3.10;;;1.92;;
11098;SDS011;12223;42.650;23.364;2024-03-22T09:21:11;6.00;;;1.90;;
11098;SDS011;12223;42.650;23.364;2024-03-22T09:23:38;5.32;;;2.25;;
11098;SDS011;12223;42.650;23.364;2024-03-22T09:26:03;13.40;;;2.83;;
11098;SDS011;12223;42.650;23.364;2024-03-22T09:28:29;7.00;;;3.00;;
11098;SDS011;12223;42.650;23.364;2024-03-22T09:30:54;5.85;;;2.35;;
11098;SDS011;12223;42.650;23.364;2024-03-22T09:33:20;6.82;;;2.15;;
11098;SDS011;12223;42.650;23.364;2024-03-22T09:35:45;4.05;;;2.30;;
11098;SDS011;12223;42.650;23.364;2024-03-22T09:38:10;4.88;;;2.10;;
11098;SDS011;12223;42.650;23.364;2024-03-22T09:40:39;6.03;;;2.50;;
11098;SDS011;12223;42.650;23.364;2024-03-22T09:43:04;6.05;;;2.70;;
11098;SDS011;12223;42.650;23.364;2024-03-22T09:45:33;4.03;;;1.92;;
11098;SDS011;12223;42.650;23.364;2024-03-22T09:47:59;9.05;;;2.20;;
11098;SDS011;12223;42.650;23.364;2024-03-22T09:50:25;4.68;;;2.15;;
11098;SDS011;12223;42.650;23.364;2024-03-22T09:52:54;7.53;;;3.28;;
11098;SDS011;12223;42.650;23.364;2024-03-22T09:55:23;6.45;;;2.75;;
11098;SDS011;12223;42.650;23.364;2024-03-22T09:57:49;7.22;;;1.27;;
11098;SDS011;12223;42.650;23.364;2024-03-22T10:00:16;4.45;;;2.35;;
11098;SDS011;12223;42.650;23.364;2024-03-22T10:02:45;9.10;;;2.88;;
11098;SDS011;12223;42.650;23.364;2024-03-22T10:05:11;5.70;;;1.75;;
11098;SDS011;12223;42.650;23.364;2024-03-22T10:07:37;4.05;;;2.40;;
11098;SDS011;12223;42.650;23.364;2024-03-22T10:10:02;3.88;;;1.98;;
11098;SDS011;12223;42.650;23.364;2024-03-22T10:12:28;8.02;;;2.40;;
11098;SDS011;12223;42.650;23.364;2024-03-22T10:14:54;8.40;;;2.67;;
11098;SDS011;12223;42.650;23.364;2024-03-22T10:17:19;3.92;;;2.20;;
11098;SDS011;12223;42.650;23.364;2024-03-22T10:19:45;4.35;;;1.80;;
11098;SDS011;12223;42.650;23.364;2024-03-22T10:22:15;5.13;;;2.40;;
11098;SDS011;12223;42.650;23.364;2024-03-22T10:24:44;6.03;;;2.80;;
11098;SDS011;12223;42.650;23.364;2024-03-22T10:27:09;7.18;;;2.30;;
11098;SDS011;12223;42.650;23.364;2024-03-22T10:29:35;5.03;;;2.50;;
11098;SDS011;12223;42.650;23.364;2024-03-22T10:32:01;5.22;;;2.00;;
11098;SDS011;12223;42.650;23.364;2024-03-22T10:34:27;6.30;;;2.08;;
11098;SDS011;12223;42.650;23.364;2024-03-22T10:36:53;3.58;;;1.73;;
11098;SDS011;12223;42.650;23.364;2024-03-22T10:39:21;3.92;;;2.10;;
11098;SDS011;12223;42.650;23.364;2024-03-22T10:41:48;4.57;;;2.47;;
11098;SDS011;12223;42.650;23.364;2024-03-22T10:44:14;5.20;;;2.22;;
11098;SDS011;12223;42.650;23.364;2024-03-22T10:46:46;4.55;;;2.45;;
11098;SDS011;12223;42.650;23.364;2024-03-22T10:49:16;8.18;;;2.47;;
11098;SDS011;12223;42.650;23.364;2024-03-22T10:51:49;6.43;;;3.13;;
11098;SDS011;12223;42.650;23.364;2024-03-22T10:54:20;9.77;;;2.50;;
11098;SDS011;12223;42.650;23.364;2024-03-22T10:56:55;12.07;;;3.15;;
11098;SDS011;12223;42.650;23.364;2024-03-22T10:59:23;6.85;;;3.28;;
11098;SDS011;12223;42.650;23.364;2024-03-22T11:01:49;3.67;;;2.13;;
11098;SDS011;12223;42.650;23.364;2024-03-22T11:04:19;12.60;;;2.80;;
11098;SDS011;12223;42.650;23.364;2024-03-22T11:06:48;6.65;;;2.10;;
11098;SDS011;12223;42.650;23.364;2024-03-22T11:09:23;7.70;;;1.65;;
11098;SDS011;12223;42.650;23.364;2024-03-22T11:11:54;5.63;;;2.28;;
11098;SDS011;12223;42.650;23.364;2024-03-22T11:14:21;4.20;;;2.03;;
11098;SDS011;12223;42.650;23.364;2024-03-22T11:16:51;7.18;;;3.25;;
11098;SDS011;12223;42.650;23.364;2024-03-22T11:19:18;5.57;;;2.20;;
11098;SDS011;12223;42.650;23.364;2024-03-22T11:21:43;5.80;;;2.30;;
11098;SDS011;12223;42.650;23.364;2024-03-22T11:24:09;6.50;;;2.10;;
11098;SDS011;12223;42.650;23.364;2024-03-22T11:26:36;5.32;;;2.10;;
11098;SDS011;12223;42.650;23.364;2024-03-22T11:29:01;10.85;;;2.75;;
11098;SDS011;12223;42.650;23.364;2024-03-22T11:31:27;6.32;;;2.63;;
11098;SDS011;12223;42.650;23.364;2024-03-22T11:33:55;6.60;;;2.53;;
11098;SDS011;12223;42.650;23.364;2024-03-22T11:36:24;8.77;;;3.03;;
11098;SDS011;12223;42.650;23.364;2024-03-22T11:38:50;7.63;;;3.33;;
11098;SDS011;12223;42.650;23.364;2024-03-22T11:41:18;6.13;;;2.60;;
11098;SDS011;12223;42.650;23.364;2024-03-22T11:46:14;6.90;;;2.40;;
11098;SDS011;12223;42.650;23.364;2024-03-22T11:48:41;7.47;;;3.10;;
11098;SDS011;12223;42.650;23.364;2024-03-22T11:51:07;5.95;;;2.55;;
11098;SDS011;12223;42.650;23.364;2024-03-22T11:53:34;7.88;;;2.72;;
11098;SDS011;12223;42.650;23.364;2024-03-22T11:56:00;5.43;;;2.58;;
11098;SDS011;12223;42.650;23.364;2024-03-22T11:58:26;5.18;;;3.28;;
11098;SDS011;12223;42.650;23.364;2024-03-22T12:00:51;9.45;;;3.63;;
11098;SDS011;12223;42.650;23.364;2024-03-22T12:03:17;4.65;;;2.50;;
11098;SDS011;12223;42.650;23.364;2024-03-22T12:05:43;10.02;;;2.33;;
11098;SDS011;12223;42.650;23.364;2024-03-22T12:08:08;11.60;;;3.08;;
11098;SDS011;12223;42.650;23.364;2024-03-22T12:10:34;9.90;;;2.78;;
11098;SDS011;12223;42.650;23.364;2024-03-22T12:13:00;4.82;;;1.98;;
11098;SDS011;12223;42.650;23.364;2024-03-22T12:15:26;5.00;;;2.05;;
11098;SDS011;12223;42.650;23.364;2024-03-22T12:17:51;9.45;;;2.58;;
11098;SDS011;12223;42.650;23.364;2024-03-22T12:20:16;5.18;;;2.35;;
11098;SDS011;12223;42.650;23.364;2024-03-22T12:22:42;8.73;;;1.98;;
11098;SDS011;12223;42.650;23.364;2024-03-22T12:25:07;5.78;;;2.10;;
11098;SDS011;12223;42.650;23.364;2024-03-22T12:27:34;12.27;;;4.22;;
11098;SDS011;12223;42.650;23.364;2024-03-22T12:30:00;9.88;;;1.88;;
11098;SDS011;12223;42.650;23.364;2024-03-22T12:32:25;5.97;;;2.10;;
11098;SDS011;12223;42.650;23.364;2024-03-22T12:34:50;4.07;;;2.38;;
11098;SDS011;12223;42.650;23.364;2024-03-22T12:37:16;10.13;;;1.70;;
11098;SDS011;12223;42.650;23.364;2024-03-22T12:39:41;6.63;;;1.80;;
11098;SDS011;12223;42.650;23.364;2024-03-22T12:42:07;4.32;;;2.17;;
11098;SDS011;12223;42.650;23.364;2024-03-22T12:44:32;4.53;;;2.67;;
11098;SDS011;12223;42.650;23.364;2024-03-22T12:46:57;3.60;;;2.20;;
11098;SDS011;12223;42.650;23.364;2024-03-22T12:49:24;3.25;;;1.63;;
11098;SDS011;12223;42.650;23.364;2024-03-22T12:51:50;8.10;;;4.05;;
11098;SDS011;12223;42.650;23.364;2024-03-22T12:54:15;8.43;;;2.72;;
11098;SDS011;12223;42.650;23.364;2024-03-22T12:56:43;3.75;;;1.83;;
11098;SDS011;12223;42.650;23.364;2024-03-22T12:59:09;7.60;;;2.72;;
11098;SDS011;12223;42.650;23.364;2024-03-22T13:01:34;6.85;;;2.40;;
11098;SDS011;12223;42.650;23.364;2024-03-22T13:04:01;15.10;;;2.40;;
11098;SDS011;12223;42.650;23.364;2024-03-22T13:06:27;5.20;;;2.30;;
11098;SDS011;12223;42.650;23.364;2024-03-22T13:08:52;4.47;;;2.40;;
11098;SDS011;12223;42.650;23.364;2024-03-22T13:11:19;6.60;;;2.35;;
11098;SDS011;12223;42.650;23.364;2024-03-22T13:13:44;4.57;;;2.33;;
11098;SDS011;12223;42.650;23.364;2024-03-22T13:16:09;4.85;;;2.17;;
11098;SDS011;12223;42.650;23.364;2024-03-22T13:18:39;9.30;;;2.42;;
11098;SDS011;12223;42.650;23.364;2024-03-22T13:21:05;9.82;;;2.42;;
11098;SDS011;12223;42.650;23.364;2024-03-22T13:23:30;3.88;;;1.75;;
11098;SDS011;12223;42.650;23.364;2024-03-22T13:25:56;2.25;;;1.33;;
11098;SDS011;12223;42.650;23.364;2024-03-22T13:28:23;3.22;;;1.50;;
11098;SDS011;12223;42.650;23.364;2024-03-22T13:30:49;5.18;;;1.90;;
11098;SDS011;12223;42.650;23.364;2024-03-22T13:33:14;4.75;;;1.83;;
11098;SDS011;12223;42.650;23.364;2024-03-22T13:35:45;5.28;;;1.77;;
11098;SDS011;12223;42.650;23.364;2024-03-22T13:38:11;5.13;;;2.55;;
11098;SDS011;12223;42.650;23.364;2024-03-22T13:40:38;4.25;;;2.42;;
11098;SDS011;12223;42.650;23.364;2024-03-22T13:43:05;3.10;;;1.88;;
11098;SDS011;12223;42.650;23.364;2024-03-22T13:45:30;7.82;;;2.42;;
11098;SDS011;12223;42.650;23.364;2024-03-22T13:47:56;6.80;;;1.98;;
11098;SDS011;12223;42.650;23.364;2024-03-22T13:50:21;3.35;;;1.33;;
11098;SDS011;12223;42.650;23.364;2024-03-22T13:52:47;4.55;;;1.25;;
11098;SDS011;12223;42.650;23.364;2024-03-22T13:55:13;3.40;;;1.70;;
11098;SDS011;12223;42.650;23.364;2024-03-22T13:57:38;5.43;;;1.85;;
11098;SDS011;12223;42.650;23.364;2024-03-22T14:00:04;4.32;;;2.08;;
11098;SDS011;12223;42.650;23.364;2024-03-22T14:02:32;2.78;;;1.58;;
11098;SDS011;12223;42.650;23.364;2024-03-22T14:04:58;3.90;;;2.42;;
11098;SDS011;12223;42.650;23.364;2024-03-22T14:07:23;4.18;;;2.40;;
11098;SDS011;12223;42.650;23.364;2024-03-22T14:09:48;3.78;;;1.55;;
11098;SDS011;12223;42.650;23.364;2024-03-22T14:12:14;3.60;;;1.77;;
11098;SDS011;12223;42.650;23.364;2024-03-22T14:14:39;7.88;;;1.90;;
11098;SDS011;12223;42.650;23.364;2024-03-22T14:17:05;4.43;;;2.20;;
11098;SDS011;12223;42.650;23.364;2024-03-22T14:19:30;6.60;;;3.00;;
11098;SDS011;12223;42.650;23.364;2024-03-22T14:21:55;4.80;;;1.88;;
11098;SDS011;12223;42.650;23.364;2024-03-22T14:24:21;3.42;;;1.58;;